createdAt,value
2023-02-22T00:00:34.716Z,7.18
2023-02-22T00:03:01.248Z,7.14
2023-02-22T00:05:28.584Z,7.08
2023-02-22T00:07:58.694Z,7.06
2023-02-22T00:10:25.295Z,7.04
2023-02-22T00:12:53.414Z,7.01
2023-02-22T00:15:22.719Z,7.03
2023-02-22T00:17:49.316Z,7.04
2023-02-22T00:20:19.892Z,7.03
2023-02-22T00:22:49.490Z,7.05
2023-02-22T00:25:19.865Z,7.04
2023-02-22T00:27:52.683Z,7.04
2023-02-22T00:30:26.975Z,7.03
2023-02-22T00:32:55.978Z,7.00
2023-02-22T00:35:27.178Z,7.02
2023-02-22T00:37:56.972Z,7.03
2023-02-22T00:40:27.077Z,7.03
2023-02-22T00:42:53.900Z,7.01
2023-02-22T00:45:23.349Z,7.00
2023-02-22T00:47:50.588Z,6.99
2023-02-22T00:50:18.610Z,7.00
2023-02-22T00:52:45.697Z,6.97
2023-02-22T00:55:26.886Z,6.99
2023-02-22T00:57:54.216Z,6.96
2023-02-22T01:00:28.031Z,6.95
2023-02-22T01:02:55.971Z,6.96
2023-02-22T01:05:25.918Z,6.96
2023-02-22T01:07:53.321Z,6.95
2023-02-22T01:10:21.778Z,6.92
2023-02-22T01:12:49.958Z,6.90
2023-02-22T01:15:21.790Z,6.90
2023-02-22T01:17:49.824Z,6.91
2023-02-22T01:20:16.771Z,6.92
2023-02-22T01:22:47.175Z,6.92
2023-02-22T01:25:19.470Z,6.87
2023-02-22T01:27:45.930Z,6.84
2023-02-22T01:30:15.086Z,6.85
2023-02-22T01:32:42.996Z,6.86
2023-02-22T01:35:13.716Z,6.84
2023-02-22T01:37:41.305Z,6.84
2023-02-22T01:40:10.150Z,6.83
2023-02-22T01:42:37.163Z,6.80
2023-02-22T01:45:32.627Z,6.80
2023-02-22T01:48:05.557Z,6.81
2023-02-22T01:50:35.488Z,6.80
2023-02-22T01:53:03.221Z,6.79
2023-02-22T01:55:30.613Z,6.77
2023-02-22T01:57:57.603Z,6.75
2023-02-22T02:00:27.580Z,6.74
2023-02-22T02:03:00.072Z,6.73
2023-02-22T02:05:28.052Z,6.70
2023-02-22T02:07:54.470Z,6.71
2023-02-22T02:10:21.575Z,6.68
2023-02-22T02:12:50.647Z,6.64
2023-02-22T02:15:34.923Z,6.60
2023-02-22T02:18:04.778Z,6.60
2023-02-22T02:20:58.769Z,6.59
2023-02-22T02:23:47.488Z,6.57
2023-02-22T02:26:32.419Z,6.59
2023-02-22T02:29:22.248Z,6.56
2023-02-22T02:32:06.119Z,6.53
2023-02-22T02:34:58.243Z,6.51
2023-02-22T02:37:36.829Z,6.47
2023-02-22T02:40:22.206Z,6.44
2023-02-22T02:43:05.115Z,6.42
2023-02-22T02:45:49.554Z,6.41
2023-02-22T02:48:18.945Z,6.38
2023-02-22T02:50:48.735Z,6.37
2023-02-22T02:53:21.136Z,6.37
2023-02-22T02:55:47.842Z,6.33
2023-02-22T02:58:20.153Z,6.31
2023-02-22T03:00:49.892Z,6.30
2023-02-22T03:03:34.784Z,6.22
2023-02-22T03:06:34.546Z,6.10
2023-02-22T03:09:39.101Z,6.04
2023-02-22T03:12:20.837Z,6.00
2023-02-22T03:15:09.197Z,5.97
2023-02-22T03:17:53.406Z,5.94
2023-02-22T03:20:32.109Z,5.91
2023-02-22T03:23:19.191Z,5.94
2023-02-22T03:25:53.631Z,5.90
2023-02-22T03:28:26.315Z,5.88
2023-02-22T03:31:05.980Z,5.90
2023-02-22T03:33:48.863Z,5.87
2023-02-22T03:36:39.105Z,5.87
2023-02-22T03:39:10.918Z,5.90
2023-02-22T03:41:39.121Z,5.89
2023-02-22T03:44:11.792Z,5.88
2023-02-22T03:46:40.915Z,5.89
2023-02-22T03:49:51.325Z,5.93
2023-02-22T03:52:18.910Z,5.92
2023-02-22T03:54:45.853Z,5.89
2023-02-22T03:57:18.889Z,5.90
2023-02-22T03:59:46.228Z,5.90
2023-02-22T04:02:12.666Z,5.87
2023-02-22T04:04:39.641Z,5.85
2023-02-22T04:07:06.101Z,5.82
2023-02-22T04:09:32.806Z,5.81
2023-02-22T04:11:59.239Z,5.78
2023-02-22T04:14:25.942Z,5.76
2023-02-22T04:16:52.873Z,5.75
2023-02-22T04:19:19.385Z,5.77
2023-02-22T04:21:45.961Z,5.73
2023-02-22T04:24:12.631Z,5.74
2023-02-22T04:26:39.062Z,5.73
2023-02-22T04:29:05.485Z,5.68
2023-02-22T04:31:33.750Z,5.67
2023-02-22T04:34:02.400Z,5.66
2023-02-22T04:36:31.762Z,5.64
2023-02-22T04:38:59.203Z,5.62
2023-02-22T04:41:25.778Z,5.63
2023-02-22T04:43:52.421Z,5.65
2023-02-22T04:46:19.856Z,5.65
2023-02-22T04:48:46.304Z,5.61
2023-02-22T04:51:13.100Z,5.62
2023-02-22T04:53:39.635Z,5.61
2023-02-22T04:56:06.415Z,5.61
2023-02-22T04:58:32.880Z,5.61
2023-02-22T05:01:00.953Z,5.61
2023-02-22T05:03:27.451Z,5.64
2023-02-22T05:05:54.025Z,5.63
2023-02-22T05:08:20.510Z,5.58
2023-02-22T05:10:46.936Z,5.56
2023-02-22T05:13:13.409Z,5.54
2023-02-22T05:15:39.856Z,5.55
2023-02-22T05:18:06.286Z,5.55
2023-02-22T05:20:35.433Z,5.54
2023-02-22T05:23:02.850Z,5.54
2023-02-22T05:25:29.734Z,5.51
2023-02-22T05:27:59.437Z,5.51
2023-02-22T05:30:28.747Z,5.53
2023-02-22T05:32:55.566Z,5.52
2023-02-22T05:35:23.402Z,5.53
2023-02-22T05:37:50.841Z,5.53
2023-02-22T05:40:23.138Z,5.53
2023-02-22T05:42:50.775Z,5.53
2023-02-22T05:45:19.517Z,5.53
2023-02-22T05:47:46.594Z,5.51
2023-02-22T05:50:13.986Z,5.50
2023-02-22T05:52:41.963Z,5.48
2023-02-22T05:55:10.268Z,5.49
2023-02-22T05:57:36.800Z,5.46
2023-02-22T06:00:06.869Z,5.44
2023-02-22T06:02:34.017Z,5.46
2023-02-22T06:05:00.780Z,5.46
2023-02-22T06:07:27.294Z,5.47
2023-02-22T06:09:53.870Z,5.50
2023-02-22T06:12:20.603Z,5.50
2023-02-22T06:14:47.068Z,5.50
2023-02-22T06:17:15.306Z,5.49
2023-02-22T06:19:41.917Z,5.46
2023-02-22T06:22:15.863Z,5.46
2023-02-22T06:24:42.294Z,5.45
2023-02-22T06:27:08.873Z,5.47
2023-02-22T06:29:35.282Z,5.48
2023-02-22T06:32:02.068Z,5.48
2023-02-22T06:34:28.555Z,5.49
2023-02-22T06:36:54.989Z,5.47
2023-02-22T06:39:21.412Z,5.44
2023-02-22T06:41:48.201Z,5.43
2023-02-22T06:44:15.311Z,5.41
2023-02-22T06:46:49.301Z,5.39
2023-02-22T06:49:15.745Z,5.37
2023-02-22T06:51:42.313Z,5.39
2023-02-22T06:54:09.764Z,5.38
2023-02-22T06:56:36.202Z,5.39
2023-02-22T06:59:02.962Z,5.35
2023-02-22T07:01:29.841Z,5.32
2023-02-22T07:03:56.646Z,5.32
2023-02-22T07:06:23.650Z,5.33
2023-02-22T07:08:50.158Z,5.33
2023-02-22T07:11:17.615Z,5.37
2023-02-22T07:13:44.284Z,5.39
2023-02-22T07:16:10.871Z,5.41
2023-02-22T07:18:37.448Z,5.40
2023-02-22T07:21:04.564Z,5.40
2023-02-22T07:23:31.013Z,5.40
2023-02-22T07:26:00.654Z,5.40
2023-02-22T07:28:27.193Z,5.44
2023-02-22T07:30:53.674Z,5.44
2023-02-22T07:33:20.160Z,5.41
2023-02-22T07:35:48.934Z,5.44
2023-02-22T07:38:17.374Z,5.48
2023-02-22T07:40:45.040Z,5.50
2023-02-22T07:43:19.942Z,5.51
2023-02-22T07:45:48.132Z,5.51
2023-02-22T07:48:17.760Z,5.51
2023-02-22T07:50:44.929Z,5.51
2023-02-22T07:53:18.295Z,5.49
2023-02-22T07:55:45.078Z,5.49
2023-02-22T07:58:15.865Z,5.50
2023-02-22T08:00:44.123Z,5.50
2023-02-22T08:03:13.468Z,5.49
2023-02-22T08:05:42.241Z,5.51
2023-02-22T08:08:08.822Z,5.53
2023-02-22T08:10:36.091Z,5.56
2023-02-22T08:13:03.513Z,5.56
2023-02-22T08:15:38.328Z,5.55
2023-02-22T08:18:10.316Z,5.56
2023-02-22T08:20:38.450Z,5.60
2023-02-22T08:23:06.220Z,5.64
2023-02-22T08:25:33.088Z,5.64
2023-02-22T08:28:01.929Z,5.65
2023-02-22T08:30:30.791Z,5.67
2023-02-22T08:32:58.392Z,5.68
2023-02-22T08:35:25.618Z,5.66
2023-02-22T08:37:54.042Z,5.67
2023-02-22T08:40:23.306Z,5.73
2023-02-22T08:42:49.805Z,5.73
2023-02-22T08:45:16.998Z,5.75
2023-02-22T08:47:43.693Z,5.75
2023-02-22T08:50:16.792Z,5.79
2023-02-22T08:52:43.371Z,5.83
2023-02-22T08:55:09.917Z,5.87
2023-02-22T08:57:36.344Z,5.91
2023-02-22T09:00:05.144Z,5.93
2023-02-22T09:02:31.600Z,5.96
2023-02-22T09:04:58.063Z,6.01
2023-02-22T09:07:24.697Z,6.08
2023-02-22T09:09:51.145Z,6.12
2023-02-22T09:12:17.587Z,6.13
2023-02-22T09:14:44.057Z,6.14
2023-02-22T09:17:10.489Z,6.20
2023-02-22T09:19:36.967Z,6.23
2023-02-22T09:22:03.456Z,6.26
2023-02-22T09:24:30.410Z,6.31
2023-02-22T09:26:56.910Z,6.36
2023-02-22T09:29:25.889Z,6.40
2023-02-22T09:31:54.326Z,6.43
2023-02-22T09:34:29.545Z,6.44
2023-02-22T09:36:57.744Z,6.46
2023-02-22T09:39:24.494Z,6.48
2023-02-22T09:41:59.682Z,6.52
2023-02-22T09:44:55.817Z,6.55
2023-02-22T09:47:32.500Z,6.58
2023-02-22T09:50:22.640Z,6.60
2023-02-22T09:53:18.176Z,6.64
2023-02-22T09:55:49.743Z,6.72
2023-02-22T09:58:27.281Z,6.79
2023-02-22T10:01:05.104Z,6.85
2023-02-22T10:03:46.637Z,6.92
2023-02-22T10:06:16.277Z,7.06
2023-02-22T10:08:45.083Z,7.13
2023-02-22T10:11:29.861Z,7.20
2023-02-22T10:14:08.562Z,7.30
2023-02-22T10:16:57.091Z,7.33
2023-02-22T10:19:47.602Z,7.36
2023-02-22T10:22:19.123Z,7.41
2023-02-22T10:25:00.618Z,7.51
2023-02-22T10:27:53.211Z,7.65
2023-02-22T10:30:42.312Z,7.77
2023-02-22T10:33:22.544Z,7.90
2023-02-22T10:35:51.641Z,7.91
2023-02-22T10:38:30.388Z,7.93
2023-02-22T10:41:08.935Z,7.92
2023-02-22T10:43:43.008Z,7.97
2023-02-22T10:46:15.291Z,8.05
2023-02-22T10:48:44.765Z,8.07
2023-02-22T10:51:11.667Z,8.08
2023-02-22T10:53:41.069Z,8.08
2023-02-22T10:56:22.295Z,8.13
2023-02-22T10:59:02.347Z,8.18
2023-02-22T11:01:31.814Z,8.19
2023-02-22T11:04:10.818Z,8.20
2023-02-22T11:06:38.529Z,8.21
2023-02-22T11:09:10.397Z,8.24
2023-02-22T11:11:38.239Z,8.26
2023-02-22T11:14:06.793Z,8.29
2023-02-22T11:16:36.448Z,8.33
2023-02-22T11:19:30.907Z,8.36
2023-02-22T11:22:10.035Z,8.38
2023-02-22T11:27:28.691Z,8.39
2023-02-22T11:30:07.689Z,8.42
2023-02-22T11:32:36.574Z,8.48
2023-02-22T11:35:28.150Z,8.55
2023-02-22T11:38:10.536Z,8.64
2023-02-22T11:40:36.970Z,8.71
2023-02-22T11:43:16.002Z,8.73
2023-02-22T11:46:08.418Z,8.81
2023-02-22T11:48:39.542Z,8.84
2023-02-22T11:51:14.088Z,8.84
2023-02-22T11:53:55.112Z,8.81
2023-02-22T11:56:38.359Z,8.77
2023-02-22T11:59:23.403Z,8.78
2023-02-22T12:02:08.622Z,8.74
2023-02-22T12:04:53.219Z,8.71
2023-02-22T12:07:19.746Z,8.69
2023-02-22T12:09:55.165Z,8.68
2023-02-22T12:12:36.891Z,8.67
2023-02-22T12:15:31.821Z,8.66
2023-02-22T12:18:18.537Z,8.65
2023-02-22T12:20:56.837Z,8.69
2023-02-22T12:23:40.856Z,8.71
2023-02-22T12:26:28.164Z,8.76
2023-02-22T12:29:06.316Z,8.80
2023-02-22T12:31:58.147Z,8.86
2023-02-22T12:34:27.704Z,8.91
2023-02-22T12:37:05.902Z,8.95
2023-02-22T12:40:08.470Z,8.99
2023-02-22T12:42:47.034Z,9.07
2023-02-22T12:45:27.146Z,9.17
2023-02-22T12:48:17.368Z,9.24
2023-02-22T12:50:47.456Z,9.33
2023-02-22T12:53:21.245Z,9.39
2023-02-22T12:55:56.602Z,9.46
2023-02-22T12:58:49.424Z,9.48
2023-02-22T13:01:24.110Z,9.49
2023-02-22T13:03:50.606Z,9.52
2023-02-22T13:06:17.524Z,9.56
2023-02-22T13:09:24.506Z,9.59
2023-02-22T13:12:16.730Z,9.56
2023-02-22T13:15:05.178Z,9.56
2023-02-22T13:17:43.064Z,9.58
2023-02-22T13:20:30.660Z,9.57
2023-02-22T13:23:13.902Z,9.58
2023-02-22T13:25:45.758Z,9.57
2023-02-22T13:28:32.148Z,9.57
2023-02-22T13:31:21.059Z,9.60
2023-02-22T13:34:06.411Z,9.63
2023-02-22T13:36:41.845Z,9.65
2023-02-22T13:39:17.747Z,9.65
2023-02-22T13:41:51.389Z,9.68
2023-02-22T13:44:38.454Z,9.69
2023-02-22T13:47:23.791Z,9.67
2023-02-22T13:50:15.727Z,9.67
2023-02-22T13:52:43.640Z,9.66
2023-02-22T13:55:36.738Z,9.68
2023-02-22T13:58:06.515Z,9.67
2023-02-22T14:00:41.259Z,9.66
2023-02-22T14:03:29.974Z,9.64
2023-02-22T14:06:00.917Z,9.67
2023-02-22T14:08:31.339Z,9.68
2023-02-22T14:10:59.551Z,9.67
2023-02-22T14:13:32.233Z,9.68
2023-02-22T14:16:02.485Z,9.70
2023-02-22T14:18:42.522Z,9.68
2023-02-22T14:21:12.046Z,9.70
2023-02-22T14:23:42.650Z,9.66
2023-02-22T14:26:22.732Z,9.63
2023-02-22T14:28:55.247Z,9.63
2023-02-22T14:31:35.613Z,9.62
2023-02-22T14:34:17.565Z,9.62
2023-02-22T14:37:01.159Z,9.62
2023-02-22T14:39:51.407Z,9.62
2023-02-22T14:42:27.259Z,9.63
2023-02-22T14:45:21.752Z,9.67
2023-02-22T14:48:13.627Z,9.72
2023-02-22T14:50:40.045Z,9.74
2023-02-22T14:53:12.705Z,9.76
2023-02-22T14:55:47.619Z,9.75
2023-02-22T14:58:26.205Z,9.73
2023-02-22T15:00:56.764Z,9.73
2023-02-22T15:03:38.253Z,9.72
2023-02-22T15:06:06.033Z,9.72
2023-02-22T15:08:34.234Z,9.72
2023-02-22T15:11:02.371Z,9.72
2023-02-22T15:13:34.247Z,9.69
2023-02-22T15:16:04.306Z,9.68
2023-02-22T15:18:57.983Z,9.68
2023-02-22T15:21:27.617Z,9.66
2023-02-22T15:24:01.687Z,9.63
2023-02-22T15:26:38.848Z,9.62
2023-02-22T15:29:13.182Z,9.62
2023-02-22T15:31:41.395Z,9.64
2023-02-22T15:34:16.883Z,9.62
2023-02-22T15:36:45.215Z,9.59
2023-02-22T15:39:44.255Z,9.57
2023-02-22T15:42:21.079Z,9.57
2023-02-22T15:44:49.693Z,9.56
2023-02-22T15:47:21.775Z,9.55
2023-02-22T15:50:21.203Z,9.54
2023-02-22T15:53:02.746Z,9.51
2023-02-22T15:55:38.384Z,9.49
2023-02-22T15:58:23.935Z,9.48
2023-02-22T16:01:03.152Z,9.45
2023-02-22T16:03:48.537Z,9.44
2023-02-22T16:06:30.479Z,9.42
2023-02-22T16:09:00.198Z,9.41
2023-02-22T16:11:40.813Z,9.40
2023-02-22T16:14:31.138Z,9.38
2023-02-22T16:17:30.726Z,9.35
2023-02-22T16:19:59.212Z,9.32
2023-02-22T16:22:33.808Z,9.30
2023-02-22T16:25:27.449Z,9.25
2023-02-22T16:27:58.027Z,9.21
2023-02-22T16:30:35.150Z,9.14
2023-02-22T16:33:05.772Z,9.11
2023-02-22T16:35:35.438Z,9.09
2023-02-22T16:38:03.352Z,9.06
2023-02-22T16:40:52.237Z,9.01
2023-02-22T16:43:22.575Z,9.00
2023-02-22T16:45:49.099Z,8.95
2023-02-22T16:48:19.622Z,8.92
2023-02-22T16:50:47.965Z,8.88
2023-02-22T16:53:20.003Z,8.87
2023-02-22T16:55:51.830Z,8.86
2023-02-22T16:58:19.265Z,8.84
2023-02-22T17:00:45.781Z,8.82
2023-02-22T17:03:18.299Z,8.80
2023-02-22T17:05:44.980Z,8.77
2023-02-22T17:08:11.624Z,8.74
2023-02-22T17:10:38.147Z,8.73
2023-02-22T17:13:21.888Z,8.72
2023-02-22T17:15:50.116Z,8.71
2023-02-22T17:18:22.664Z,8.71
2023-02-22T17:20:54.393Z,8.70
2023-02-22T17:23:22.451Z,8.72
2023-02-22T17:25:53.575Z,8.72
2023-02-22T17:28:21.223Z,8.72
2023-02-22T17:30:49.006Z,8.72
2023-02-22T17:33:19.085Z,8.71
2023-02-22T17:35:47.027Z,8.72
2023-02-22T17:38:18.482Z,8.72
2023-02-22T17:40:51.970Z,8.73
2023-02-22T17:43:19.411Z,8.73
2023-02-22T17:45:46.209Z,8.72
2023-02-22T17:48:13.905Z,8.73
2023-02-22T17:50:42.144Z,8.75
2023-02-22T17:53:10.955Z,8.75
2023-02-22T17:55:40.571Z,8.75
2023-02-22T17:58:14.497Z,8.74
2023-02-22T18:00:44.776Z,8.72
2023-02-22T18:03:21.202Z,8.72
2023-02-22T18:05:50.037Z,8.72
2023-02-22T18:08:16.592Z,8.70
2023-02-22T18:10:44.109Z,8.71
2023-02-22T18:13:16.695Z,8.71
2023-02-22T18:15:43.585Z,8.71
2023-02-22T18:18:10.102Z,8.70
2023-02-22T18:20:39.192Z,8.70
2023-02-22T18:23:07.552Z,8.68
2023-02-22T18:25:35.818Z,8.71
2023-02-22T18:28:06.824Z,8.70
2023-02-22T18:30:35.925Z,8.71
2023-02-22T18:33:03.693Z,8.72
2023-02-22T18:35:30.490Z,8.72
2023-02-22T18:37:56.918Z,8.72
2023-02-22T18:40:23.843Z,8.73
2023-02-22T18:42:50.297Z,8.71
2023-02-22T18:45:17.198Z,8.71
2023-02-22T18:47:45.541Z,8.71
2023-02-22T18:50:13.189Z,8.70
2023-02-22T18:52:46.340Z,8.71
2023-02-22T18:55:18.292Z,8.70
2023-02-22T18:57:45.852Z,8.69
2023-02-22T19:00:15.891Z,8.71
2023-02-22T19:02:45.562Z,8.72
2023-02-22T19:05:17.289Z,8.69
2023-02-22T19:07:45.096Z,8.68
2023-02-22T19:10:11.651Z,8.68
2023-02-22T19:12:38.248Z,8.68
2023-02-22T19:15:04.905Z,8.67
2023-02-22T19:17:32.576Z,8.67
2023-02-22T19:19:59.081Z,8.66
2023-02-22T19:22:32.754Z,8.62
2023-02-22T19:25:01.227Z,8.59
2023-02-22T19:27:31.348Z,8.58
2023-02-22T19:29:58.594Z,8.59
2023-02-22T19:32:25.523Z,8.59
2023-02-22T19:34:53.135Z,8.57
2023-02-22T19:37:22.727Z,8.57
2023-02-22T19:39:49.232Z,8.56
2023-02-22T19:42:15.646Z,8.55
2023-02-22T19:44:42.172Z,8.55
2023-02-22T19:47:10.018Z,8.54
2023-02-22T19:49:37.742Z,8.53
2023-02-22T19:52:06.532Z,8.55
2023-02-22T19:54:33.536Z,8.53
2023-02-22T19:57:00.602Z,8.51
2023-02-22T19:59:27.402Z,8.51
2023-02-22T20:01:54.829Z,8.50
2023-02-22T20:04:21.841Z,8.50
2023-02-22T20:06:54.739Z,8.48
2023-02-22T20:09:29.731Z,8.47
2023-02-22T20:11:56.529Z,8.44
2023-02-22T20:14:26.198Z,8.43
2023-02-22T20:16:53.796Z,8.41
2023-02-22T20:19:22.460Z,8.42
2023-02-22T20:21:49.519Z,8.42
2023-02-22T20:24:18.266Z,8.41
2023-02-22T20:26:46.414Z,8.39
2023-02-22T20:29:13.991Z,8.38
2023-02-22T20:31:42.064Z,8.40
2023-02-22T20:34:09.987Z,8.39
2023-02-22T20:36:38.637Z,8.39
2023-02-22T20:39:07.508Z,8.37
2023-02-22T20:41:35.535Z,8.39
2023-02-22T20:44:03.290Z,8.39
2023-02-22T20:46:37.348Z,8.39
2023-02-22T20:49:07.448Z,8.38
2023-02-22T20:51:34.983Z,8.39
2023-02-22T20:54:01.630Z,8.37
2023-02-22T20:56:30.340Z,8.38
2023-02-22T20:58:58.354Z,8.40
2023-02-22T21:01:25.651Z,8.39
2023-02-22T21:03:52.157Z,8.37
2023-02-22T21:06:21.450Z,8.37
2023-02-22T21:08:53.800Z,8.34
2023-02-22T21:11:21.482Z,8.32
2023-02-22T21:13:48.168Z,8.32
2023-02-22T21:16:27.240Z,8.33
2023-02-22T21:18:56.392Z,8.33
2023-02-22T21:21:23.540Z,8.30
2023-02-22T21:23:52.379Z,8.28
2023-02-22T21:26:23.628Z,8.32
2023-02-22T21:28:52.072Z,8.34
2023-02-22T21:31:21.798Z,8.32
2023-02-22T21:33:50.916Z,8.32
2023-02-22T21:36:18.313Z,8.33
2023-02-22T21:38:48.898Z,8.32
2023-02-22T21:41:17.386Z,8.30
2023-02-22T21:43:48.419Z,8.31
2023-02-22T21:46:14.881Z,8.31
2023-02-22T21:48:45.087Z,8.30
2023-02-22T21:51:14.024Z,8.27
2023-02-22T21:53:48.632Z,8.26
2023-02-22T21:56:23.032Z,8.25
2023-02-22T21:59:14.122Z,8.26
2023-02-22T22:01:49.901Z,8.25
2023-02-22T22:04:19.544Z,8.24
2023-02-22T22:06:48.963Z,8.24
2023-02-22T22:09:18.320Z,8.22
2023-02-22T22:11:53.485Z,8.22
2023-02-22T22:14:23.158Z,8.20
2023-02-22T22:16:51.924Z,8.18
2023-02-22T22:19:18.442Z,8.17
2023-02-22T22:21:46.678Z,8.17
2023-02-22T22:24:13.375Z,8.17
2023-02-22T22:26:40.093Z,8.17
2023-02-22T22:29:09.915Z,8.17
2023-02-22T22:31:36.493Z,8.17
2023-02-22T22:34:03.036Z,8.15
2023-02-22T22:36:29.528Z,8.16
2023-02-22T22:38:58.821Z,8.19
2023-02-22T22:41:28.101Z,8.19
2023-02-22T22:43:55.122Z,8.18
2023-02-22T22:46:21.927Z,8.17
2023-02-22T22:48:48.599Z,8.17
2023-02-22T22:51:20.894Z,8.15
2023-02-22T22:53:49.497Z,8.16
2023-02-22T22:56:19.197Z,8.14
2023-02-22T22:58:50.791Z,8.16
2023-02-22T23:01:19.562Z,8.12
2023-02-22T23:03:56.528Z,8.11
2023-02-22T23:06:27.214Z,8.14
2023-02-22T23:08:59.933Z,8.15
2023-02-22T23:11:33.564Z,8.16
2023-02-22T23:14:03.065Z,8.14
2023-02-22T23:16:29.525Z,8.10
2023-02-22T23:18:55.943Z,8.11
2023-02-22T23:21:24.384Z,8.10
2023-02-22T23:23:59.708Z,8.09
2023-02-22T23:26:26.884Z,8.09
2023-02-22T23:28:56.289Z,8.12
2023-02-22T23:31:23.761Z,8.11
2023-02-22T23:33:50.728Z,8.11
2023-02-22T23:36:18.701Z,8.10
2023-02-22T23:38:45.859Z,8.10
2023-02-22T23:41:16.646Z,8.08
2023-02-22T23:43:44.898Z,8.06
2023-02-22T23:46:18.576Z,8.05
2023-02-22T23:48:54.407Z,8.04
2023-02-22T23:51:26.394Z,8.04
2023-02-22T23:53:57.204Z,8.06
2023-02-22T23:56:27.368Z,8.05
2023-02-22T23:58:57.268Z,8.04
